sensor_id;sensor_type;location;lat;lon;timestamp;temperature;humidity
7572;DHT22;3827;49.928;8.548;2023-02-15T00:01:24;1.60;99.90
7572;DHT22;3827;49.928;8.548;2023-02-15T00:03:51;1.60;99.90
7572;DHT22;3827;49.928;8.548;2023-02-15T00:06:20;1.50;99.90
7572;DHT22;3827;49.928;8.548;2023-02-15T00:08:46;1.50;99.90
7572;DHT22;3827;49.928;8.548;2023-02-15T00:11:15;1.50;99.90
7572;DHT22;3827;49.928;8.548;2023-02-15T00:13:42;1.50;99.90
7572;DHT22;3827;49.928;8.548;2023-02-15T00:16:11;1.50;99.90
7572;DHT22;3827;49.928;8.548;2023-02-15T00:18:39;1.50;99.90
7572;DHT22;3827;49.928;8.548;2023-02-15T00:21:08;1.40;99.90
7572;DHT22;3827;49.928;8.548;2023-02-15T00:23:36;1.30;99.90
7572;DHT22;3827;49.928;8.548;2023-02-15T00:26:04;1.30;99.90
7572;DHT22;3827;49.928;8.548;2023-02-15T00:28:31;1.50;99.90
7572;DHT22;3827;49.928;8.548;2023-02-15T00:31:03;1.30;99.90
7572;DHT22;3827;49.928;8.548;2023-02-15T00:33:30;1.40;99.90
7572;DHT22;3827;49.928;8.548;2023-02-15T00:35:57;1.50;99.90
7572;DHT22;3827;49.928;8.548;2023-02-15T00:38:24;1.50;99.90
7572;DHT22;3827;49.928;8.548;2023-02-15T00:40:53;1.40;99.90
7572;DHT22;3827;49.928;8.548;2023-02-15T00:43:21;1.50;99.90
7572;DHT22;3827;49.928;8.548;2023-02-15T00:45:48;1.50;99.90
7572;DHT22;3827;49.928;8.548;2023-02-15T00:48:14;1.50;99.90
7572;DHT22;3827;49.928;8.548;2023-02-15T00:50:41;1.50;99.90
7572;DHT22;3827;49.928;8.548;2023-02-15T00:53:08;1.40;99.90
7572;DHT22;3827;49.928;8.548;2023-02-15T00:55:35;1.40;99.90
7572;DHT22;3827;49.928;8.548;2023-02-15T00:58:03;1.30;99.90
7572;DHT22;3827;49.928;8.548;2023-02-15T01:00:30;1.30;99.90
7572;DHT22;3827;49.928;8.548;2023-02-15T01:02:57;1.30;99.90
7572;DHT22;3827;49.928;8.548;2023-02-15T01:05:24;1.50;99.90
7572;DHT22;3827;49.928;8.548;2023-02-15T01:07:50;1.30;99.90
7572;DHT22;3827;49.928;8.548;2023-02-15T01:10:17;1.30;99.90
7572;DHT22;3827;49.928;8.548;2023-02-15T01:12:44;1.40;99.90
7572;DHT22;3827;49.928;8.548;2023-02-15T01:15:12;1.30;99.90
7572;DHT22;3827;49.928;8.548;2023-02-15T01:17:39;1.40;99.90
7572;DHT22;3827;49.928;8.548;2023-02-15T01:20:07;1.30;99.90
7572;DHT22;3827;49.928;8.548;2023-02-15T01:22:33;1.30;99.90
7572;DHT22;3827;49.928;8.548;2023-02-15T01:25:00;1.30;99.90
7572;DHT22;3827;49.928;8.548;2023-02-15T01:27:27;1.20;99.90
7572;DHT22;3827;49.928;8.548;2023-02-15T01:29:55;1.30;99.90
7572;DHT22;3827;49.928;8.548;2023-02-15T01:32:24;1.30;99.90
7572;DHT22;3827;49.928;8.548;2023-02-15T01:34:52;1.20;99.90
7572;DHT22;3827;49.928;8.548;2023-02-15T01:37:18;1.20;99.90
7572;DHT22;3827;49.928;8.548;2023-02-15T01:39:45;1.20;99.90
7572;DHT22;3827;49.928;8.548;2023-02-15T01:42:14;1.30;99.90
7572;DHT22;3827;49.928;8.548;2023-02-15T01:44:49;1.20;99.90
7572;DHT22;3827;49.928;8.548;2023-02-15T01:47:22;1.10;99.90
7572;DHT22;3827;49.928;8.548;2023-02-15T01:49:58;1.10;99.90
7572;DHT22;3827;49.928;8.548;2023-02-15T01:52:26;1.20;99.90
7572;DHT22;3827;49.928;8.548;2023-02-15T01:54:53;1.20;99.90
7572;DHT22;3827;49.928;8.548;2023-02-15T01:57:23;1.20;99.90
7572;DHT22;3827;49.928;8.548;2023-02-15T01:59:54;1.20;99.90
7572;DHT22;3827;49.928;8.548;2023-02-15T02:02:22;1.30;99.90
7572;DHT22;3827;49.928;8.548;2023-02-15T02:04:53;1.30;99.90
7572;DHT22;3827;49.928;8.548;2023-02-15T02:07:23;1.40;99.90
7572;DHT22;3827;49.928;8.548;2023-02-15T02:09:50;1.40;99.90
7572;DHT22;3827;49.928;8.548;2023-02-15T02:12:18;1.40;99.90
7572;DHT22;3827;49.928;8.548;2023-02-15T02:14:47;1.40;99.90
7572;DHT22;3827;49.928;8.548;2023-02-15T02:17:17;1.40;99.90
7572;DHT22;3827;49.928;8.548;2023-02-15T02:20:06;1.50;99.90
7572;DHT22;3827;49.928;8.548;2023-02-15T02:35:10;1.50;99.90
7572;DHT22;3827;49.928;8.548;2023-02-15T02:37:45;1.60;99.90
7572;DHT22;3827;49.928;8.548;2023-02-15T02:40:20;1.50;99.90
7572;DHT22;3827;49.928;8.548;2023-02-15T02:42:55;1.50;99.90
7572;DHT22;3827;49.928;8.548;2023-02-15T02:45:26;1.60;99.90
7572;DHT22;3827;49.928;8.548;2023-02-15T02:47:58;1.60;99.90
7572;DHT22;3827;49.928;8.548;2023-02-15T02:50:29;1.60;99.90
7572;DHT22;3827;49.928;8.548;2023-02-15T02:52:58;1.60;99.90
7572;DHT22;3827;49.928;8.548;2023-02-15T02:55:28;1.60;99.90
7572;DHT22;3827;49.928;8.548;2023-02-15T02:57:59;1.60;99.90
7572;DHT22;3827;49.928;8.548;2023-02-15T03:00:29;1.70;99.90
7572;DHT22;3827;49.928;8.548;2023-02-15T03:03:02;1.70;99.90
7572;DHT22;3827;49.928;8.548;2023-02-15T03:05:33;0.60;99.90
7572;DHT22;3827;49.928;8.548;2023-02-15T03:08:02;1.70;99.90
7572;DHT22;3827;49.928;8.548;2023-02-15T03:10:33;1.80;99.90
7572;DHT22;3827;49.928;8.548;2023-02-15T03:13:01;1.80;99.90
7572;DHT22;3827;49.928;8.548;2023-02-15T03:15:31;1.80;99.90
7572;DHT22;3827;49.928;8.548;2023-02-15T03:18:14;1.70;99.90
7572;DHT22;3827;49.928;8.548;2023-02-15T03:20:44;1.70;99.90
7572;DHT22;3827;49.928;8.548;2023-02-15T03:23:15;1.70;99.90
7572;DHT22;3827;49.928;8.548;2023-02-15T03:25:47;1.70;99.90
7572;DHT22;3827;49.928;8.548;2023-02-15T03:28:20;1.70;99.90
7572;DHT22;3827;49.928;8.548;2023-02-15T03:30:52;1.70;99.90
7572;DHT22;3827;49.928;8.548;2023-02-15T03:33:21;1.80;99.90
7572;DHT22;3827;49.928;8.548;2023-02-15T03:35:55;1.80;99.90
7572;DHT22;3827;49.928;8.548;2023-02-15T03:38:28;2.00;99.90
7572;DHT22;3827;49.928;8.548;2023-02-15T03:40:59;1.70;99.90
7572;DHT22;3827;49.928;8.548;2023-02-15T03:43:43;1.80;99.90
7572;DHT22;3827;49.928;8.548;2023-02-15T03:46:17;1.70;99.90
7572;DHT22;3827;49.928;8.548;2023-02-15T03:48:51;1.70;99.90
7572;DHT22;3827;49.928;8.548;2023-02-15T03:51:22;1.60;99.90
7572;DHT22;3827;49.928;8.548;2023-02-15T03:54:03;1.60;99.90
7572;DHT22;3827;49.928;8.548;2023-02-15T03:56:30;1.60;99.90
7572;DHT22;3827;49.928;8.548;2023-02-15T03:58:57;1.70;99.90
7572;DHT22;3827;49.928;8.548;2023-02-15T04:01:48;1.70;99.90
7572;DHT22;3827;49.928;8.548;2023-02-15T04:04:31;1.70;99.90
7572;DHT22;3827;49.928;8.548;2023-02-15T04:07:00;1.70;99.90
7572;DHT22;3827;49.928;8.548;2023-02-15T04:09:27;1.70;99.90
7572;DHT22;3827;49.928;8.548;2023-02-15T04:12:12;1.70;99.90
7572;DHT22;3827;49.928;8.548;2023-02-15T04:14:38;1.70;99.90
7572;DHT22;3827;49.928;8.548;2023-02-15T04:17:23;1.70;99.90
7572;DHT22;3827;49.928;8.548;2023-02-15T04:19:49;1.60;99.90
7572;DHT22;3827;49.928;8.548;2023-02-15T04:22:35;1.60;99.90
7572;DHT22;3827;49.928;8.548;2023-02-15T04:25:20;1.60;99.90
7572;DHT22;3827;49.928;8.548;2023-02-15T04:27:48;1.50;99.90
7572;DHT22;3827;49.928;8.548;2023-02-15T04:30:17;1.50;99.90
7572;DHT22;3827;49.928;8.548;2023-02-15T04:32:44;1.50;99.90
7572;DHT22;3827;49.928;8.548;2023-02-15T04:35:11;1.50;99.90
7572;DHT22;3827;49.928;8.548;2023-02-15T04:37:40;1.60;99.90
7572;DHT22;3827;49.928;8.548;2023-02-15T04:40:09;1.50;99.90
7572;DHT22;3827;49.928;8.548;2023-02-15T04:42:36;1.50;99.90
7572;DHT22;3827;49.928;8.548;2023-02-15T04:45:03;1.50;99.90
7572;DHT22;3827;49.928;8.548;2023-02-15T04:47:30;1.50;99.90
7572;DHT22;3827;49.928;8.548;2023-02-15T04:49:57;1.90;99.90
7572;DHT22;3827;49.928;8.548;2023-02-15T04:52:24;1.40;99.90
7572;DHT22;3827;49.928;8.548;2023-02-15T04:54:52;1.30;99.90
7572;DHT22;3827;49.928;8.548;2023-02-15T04:57:19;1.30;99.90
7572;DHT22;3827;49.928;8.548;2023-02-15T04:59:46;1.30;99.90
7572;DHT22;3827;49.928;8.548;2023-02-15T05:02:13;1.30;99.90
7572;DHT22;3827;49.928;8.548;2023-02-15T05:04:39;1.30;99.90
7572;DHT22;3827;49.928;8.548;2023-02-15T05:07:06;1.20;99.90
7572;DHT22;3827;49.928;8.548;2023-02-15T05:09:33;1.20;99.90
7572;DHT22;3827;49.928;8.548;2023-02-15T05:12:01;1.20;99.90
7572;DHT22;3827;49.928;8.548;2023-02-15T05:14:28;1.20;99.90
7572;DHT22;3827;49.928;8.548;2023-02-15T05:16:55;1.20;99.90
7572;DHT22;3827;49.928;8.548;2023-02-15T05:19:24;1.10;99.90
7572;DHT22;3827;49.928;8.548;2023-02-15T05:21:51;1.10;99.90
7572;DHT22;3827;49.928;8.548;2023-02-15T05:24:17;1.00;99.90
7572;DHT22;3827;49.928;8.548;2023-02-15T05:27:03;1.00;99.90
7572;DHT22;3827;49.928;8.548;2023-02-15T05:29:47;1.00;99.90
7572;DHT22;3827;49.928;8.548;2023-02-15T05:32:14;1.00;99.90
7572;DHT22;3827;49.928;8.548;2023-02-15T05:34:41;1.00;99.90
7572;DHT22;3827;49.928;8.548;2023-02-15T05:37:08;1.00;99.90
7572;DHT22;3827;49.928;8.548;2023-02-15T05:39:35;1.00;99.90
7572;DHT22;3827;49.928;8.548;2023-02-15T05:42:03;1.00;99.90
7572;DHT22;3827;49.928;8.548;2023-02-15T05:44:30;0.90;99.90
7572;DHT22;3827;49.928;8.548;2023-02-15T05:46:57;0.90;99.90
7572;DHT22;3827;49.928;8.548;2023-02-15T05:49:24;0.90;99.90
7572;DHT22;3827;49.928;8.548;2023-02-15T05:51:51;0.90;99.90
7572;DHT22;3827;49.928;8.548;2023-02-15T05:54:17;0.90;99.90
7572;DHT22;3827;49.928;8.548;2023-02-15T05:56:44;0.90;99.90
7572;DHT22;3827;49.928;8.548;2023-02-15T05:59:12;0.80;99.90
7572;DHT22;3827;49.928;8.548;2023-02-15T06:01:39;0.90;99.90
7572;DHT22;3827;49.928;8.548;2023-02-15T06:04:06;0.90;99.90
7572;DHT22;3827;49.928;8.548;2023-02-15T06:06:33;0.90;99.90
7572;DHT22;3827;49.928;8.548;2023-02-15T06:09:00;0.80;99.90
7572;DHT22;3827;49.928;8.548;2023-02-15T06:11:26;0.90;99.90
7572;DHT22;3827;49.928;8.548;2023-02-15T06:13:53;0.90;99.90
7572;DHT22;3827;49.928;8.548;2023-02-15T06:16:22;0.90;99.90
7572;DHT22;3827;49.928;8.548;2023-02-15T06:18:48;0.90;99.90
7572;DHT22;3827;49.928;8.548;2023-02-15T06:21:15;0.90;99.90
7572;DHT22;3827;49.928;8.548;2023-02-15T06:23:42;0.90;99.90
7572;DHT22;3827;49.928;8.548;2023-02-15T06:26:09;1.00;99.90
7572;DHT22;3827;49.928;8.548;2023-02-15T06:28:36;0.90;99.90
7572;DHT22;3827;49.928;8.548;2023-02-15T06:31:03;0.90;99.90
7572;DHT22;3827;49.928;8.548;2023-02-15T06:33:32;0.90;99.90
7572;DHT22;3827;49.928;8.548;2023-02-15T06:35:59;0.90;99.90
7572;DHT22;3827;49.928;8.548;2023-02-15T06:38:26;0.90;99.90
7572;DHT22;3827;49.928;8.548;2023-02-15T06:40:52;0.90;99.90
7572;DHT22;3827;49.928;8.548;2023-02-15T06:43:19;1.00;99.90
7572;DHT22;3827;49.928;8.548;2023-02-15T06:45:46;1.00;99.90
7572;DHT22;3827;49.928;8.548;2023-02-15T06:48:13;1.10;99.90
7572;DHT22;3827;49.928;8.548;2023-02-15T06:50:41;1.00;99.90
7572;DHT22;3827;49.928;8.548;2023-02-15T06:53:08;1.00;99.90
7572;DHT22;3827;49.928;8.548;2023-02-15T06:55:35;1.00;99.90
7572;DHT22;3827;49.928;8.548;2023-02-15T06:58:02;1.00;99.90
7572;DHT22;3827;49.928;8.548;2023-02-15T07:00:28;1.00;99.90
7572;DHT22;3827;49.928;8.548;2023-02-15T07:02:56;1.00;99.90
7572;DHT22;3827;49.928;8.548;2023-02-15T07:05:23;1.30;99.90
7572;DHT22;3827;49.928;8.548;2023-02-15T07:07:51;1.00;99.90
7572;DHT22;3827;49.928;8.548;2023-02-15T07:10:18;1.00;99.90
7572;DHT22;3827;49.928;8.548;2023-02-15T07:12:45;1.10;99.90
7572;DHT22;3827;49.928;8.548;2023-02-15T07:15:13;1.00;99.90
7572;DHT22;3827;49.928;8.548;2023-02-15T07:17:41;1.10;99.90
7572;DHT22;3827;49.928;8.548;2023-02-15T07:20:10;1.10;99.90
7572;DHT22;3827;49.928;8.548;2023-02-15T07:22:37;1.10;99.90
7572;DHT22;3827;49.928;8.548;2023-02-15T07:25:08;1.00;99.90
7572;DHT22;3827;49.928;8.548;2023-02-15T07:27:35;1.10;99.90
7572;DHT22;3827;49.928;8.548;2023-02-15T07:30:03;1.10;99.90
7572;DHT22;3827;49.928;8.548;2023-02-15T07:32:31;1.10;99.90
7572;DHT22;3827;49.928;8.548;2023-02-15T07:34:58;1.10;99.90
7572;DHT22;3827;49.928;8.548;2023-02-15T07:37:26;1.10;99.90
7572;DHT22;3827;49.928;8.548;2023-02-15T07:39:53;1.10;99.90
7572;DHT22;3827;49.928;8.548;2023-02-15T07:42:21;1.10;99.90
7572;DHT22;3827;49.928;8.548;2023-02-15T07:44:48;1.10;99.90
7572;DHT22;3827;49.928;8.548;2023-02-15T07:47:14;1.00;99.90
7572;DHT22;3827;49.928;8.548;2023-02-15T07:49:41;0.90;99.90
7572;DHT22;3827;49.928;8.548;2023-02-15T07:52:08;0.70;99.90
7572;DHT22;3827;49.928;8.548;2023-02-15T07:54:35;0.60;99.90
7572;DHT22;3827;49.928;8.548;2023-02-15T07:57:02;0.50;99.90
7572;DHT22;3827;49.928;8.548;2023-02-15T07:59:30;0.70;99.90
7572;DHT22;3827;49.928;8.548;2023-02-15T08:01:57;0.80;99.90
7572;DHT22;3827;49.928;8.548;2023-02-15T08:04:24;0.90;99.90
7572;DHT22;3827;49.928;8.548;2023-02-15T08:06:53;1.00;99.90
7572;DHT22;3827;49.928;8.548;2023-02-15T08:09:20;1.10;99.90
7572;DHT22;3827;49.928;8.548;2023-02-15T08:11:48;1.10;99.90
7572;DHT22;3827;49.928;8.548;2023-02-15T08:14:16;1.10;99.90
7572;DHT22;3827;49.928;8.548;2023-02-15T08:16:45;1.10;99.90
7572;DHT22;3827;49.928;8.548;2023-02-15T08:19:14;1.10;99.90
7572;DHT22;3827;49.928;8.548;2023-02-15T08:21:43;1.20;99.90
7572;DHT22;3827;49.928;8.548;2023-02-15T08:24:12;1.10;99.90
7572;DHT22;3827;49.928;8.548;2023-02-15T08:26:40;1.10;99.90
7572;DHT22;3827;49.928;8.548;2023-02-15T08:29:07;1.10;99.90
7572;DHT22;3827;49.928;8.548;2023-02-15T08:31:35;0.90;99.90
7572;DHT22;3827;49.928;8.548;2023-02-15T08:34:04;1.00;99.90
7572;DHT22;3827;49.928;8.548;2023-02-15T08:36:32;1.10;99.90
7572;DHT22;3827;49.928;8.548;2023-02-15T08:39:00;1.20;99.90
7572;DHT22;3827;49.928;8.548;2023-02-15T08:41:28;1.30;99.90
7572;DHT22;3827;49.928;8.548;2023-02-15T08:43:57;1.40;99.90
7572;DHT22;3827;49.928;8.548;2023-02-15T08:46:25;1.50;99.90
7572;DHT22;3827;49.928;8.548;2023-02-15T08:48:53;1.60;99.90
7572;DHT22;3827;49.928;8.548;2023-02-15T08:51:22;1.60;99.90
7572;DHT22;3827;49.928;8.548;2023-02-15T08:53:51;1.70;99.90
7572;DHT22;3827;49.928;8.548;2023-02-15T08:56:21;1.70;99.90
7572;DHT22;3827;49.928;8.548;2023-02-15T08:58:48;1.70;99.90
7572;DHT22;3827;49.928;8.548;2023-02-15T09:01:17;1.70;99.90
7572;DHT22;3827;49.928;8.548;2023-02-15T09:03:46;1.80;99.90
7572;DHT22;3827;49.928;8.548;2023-02-15T09:06:14;1.80;99.90
7572;DHT22;3827;49.928;8.548;2023-02-15T09:08:42;1.90;99.90
7572;DHT22;3827;49.928;8.548;2023-02-15T09:11:11;1.90;99.90
7572;DHT22;3827;49.928;8.548;2023-02-15T09:13:38;2.00;99.90
7572;DHT22;3827;49.928;8.548;2023-02-15T09:16:07;2.00;99.90
7572;DHT22;3827;49.928;8.548;2023-02-15T09:18:36;2.00;99.90
7572;DHT22;3827;49.928;8.548;2023-02-15T09:21:09;2.10;99.90
7572;DHT22;3827;49.928;8.548;2023-02-15T09:23:39;2.20;99.90
7572;DHT22;3827;49.928;8.548;2023-02-15T09:26:09;2.10;99.90
7572;DHT22;3827;49.928;8.548;2023-02-15T09:28:36;2.10;99.90
7572;DHT22;3827;49.928;8.548;2023-02-15T09:31:08;2.10;99.90
7572;DHT22;3827;49.928;8.548;2023-02-15T09:33:36;2.10;99.90
7572;DHT22;3827;49.928;8.548;2023-02-15T09:36:03;2.20;99.90
7572;DHT22;3827;49.928;8.548;2023-02-15T09:38:30;2.30;99.90
7572;DHT22;3827;49.928;8.548;2023-02-15T09:41:10;2.80;99.90
7572;DHT22;3827;49.928;8.548;2023-02-15T09:43:48;2.30;99.90
7572;DHT22;3827;49.928;8.548;2023-02-15T09:46:35;2.30;99.90
7572;DHT22;3827;49.928;8.548;2023-02-15T09:49:11;2.40;99.90
7572;DHT22;3827;49.928;8.548;2023-02-15T09:52:13;2.40;99.90
7572;DHT22;3827;49.928;8.548;2023-02-15T09:54:54;2.50;99.90
7572;DHT22;3827;49.928;8.548;2023-02-15T09:57:32;2.50;99.90
7572;DHT22;3827;49.928;8.548;2023-02-15T10:00:06;2.50;99.90
7572;DHT22;3827;49.928;8.548;2023-02-15T10:02:44;2.50;99.90
7572;DHT22;3827;49.928;8.548;2023-02-15T10:05:25;2.60;99.90
7572;DHT22;3827;49.928;8.548;2023-02-15T10:08:24;2.50;99.90
7572;DHT22;3827;49.928;8.548;2023-02-15T10:11:05;2.60;99.90
7572;DHT22;3827;49.928;8.548;2023-02-15T10:13:57;2.70;99.90
7572;DHT22;3827;49.928;8.548;2023-02-15T10:16:31;2.70;99.90
7572;DHT22;3827;49.928;8.548;2023-02-15T10:19:08;2.60;99.90
7572;DHT22;3827;49.928;8.548;2023-02-15T10:21:45;2.60;99.90
7572;DHT22;3827;49.928;8.548;2023-02-15T10:24:27;2.70;99.90
7572;DHT22;3827;49.928;8.548;2023-02-15T10:27:04;2.70;99.90
7572;DHT22;3827;49.928;8.548;2023-02-15T10:29:36;2.70;99.90
7572;DHT22;3827;49.928;8.548;2023-02-15T10:32:14;2.70;99.90
7572;DHT22;3827;49.928;8.548;2023-02-15T10:34:47;2.70;99.90
7572;DHT22;3827;49.928;8.548;2023-02-15T10:37:34;2.90;99.90
7572;DHT22;3827;49.928;8.548;2023-02-15T10:40:08;2.80;99.90
7572;DHT22;3827;49.928;8.548;2023-02-15T10:42:50;2.80;99.90
7572;DHT22;3827;49.928;8.548;2023-02-15T10:45:25;2.90;99.90
7572;DHT22;3827;49.928;8.548;2023-02-15T10:48:10;3.50;99.90
7572;DHT22;3827;49.928;8.548;2023-02-15T10:50:47;2.80;99.90
7572;DHT22;3827;49.928;8.548;2023-02-15T10:56:25;2.90;99.90
7572;DHT22;3827;49.928;8.548;2023-02-15T10:59:17;3.00;99.90
7572;DHT22;3827;49.928;8.548;2023-02-15T11:01:53;3.00;99.90
7572;DHT22;3827;49.928;8.548;2023-02-15T11:04:48;3.00;99.90
7572;DHT22;3827;49.928;8.548;2023-02-15T11:07:19;3.00;99.90
7572;DHT22;3827;49.928;8.548;2023-02-15T11:09:49;2.90;99.90
7572;DHT22;3827;49.928;8.548;2023-02-15T11:12:22;3.10;99.90
7572;DHT22;3827;49.928;8.548;2023-02-15T11:14:52;2.80;99.90
7572;DHT22;3827;49.928;8.548;2023-02-15T11:17:27;3.00;99.90
7572;DHT22;3827;49.928;8.548;2023-02-15T11:20:00;3.00;99.90
7572;DHT22;3827;49.928;8.548;2023-02-15T11:22:30;3.00;99.90
7572;DHT22;3827;49.928;8.548;2023-02-15T11:25:00;3.10;99.90
7572;DHT22;3827;49.928;8.548;2023-02-15T11:27:30;3.10;99.90
7572;DHT22;3827;49.928;8.548;2023-02-15T11:30:01;3.10;99.90
7572;DHT22;3827;49.928;8.548;2023-02-15T11:32:33;3.20;99.90
7572;DHT22;3827;49.928;8.548;2023-02-15T11:35:03;3.30;99.90
7572;DHT22;3827;49.928;8.548;2023-02-15T11:37:37;3.20;99.90
7572;DHT22;3827;49.928;8.548;2023-02-15T11:40:17;3.30;99.90
7572;DHT22;3827;49.928;8.548;2023-02-15T11:42:47;3.30;99.90
7572;DHT22;3827;49.928;8.548;2023-02-15T11:45:21;3.20;99.90
7572;DHT22;3827;49.928;8.548;2023-02-15T11:47:50;3.30;99.90
7572;DHT22;3827;49.928;8.548;2023-02-15T11:50:21;3.10;99.90
7572;DHT22;3827;49.928;8.548;2023-02-15T11:52:49;3.10;99.90
7572;DHT22;3827;49.928;8.548;2023-02-15T11:55:21;3.10;99.90
7572;DHT22;3827;49.928;8.548;2023-02-15T11:57:53;3.10;99.90
7572;DHT22;3827;49.928;8.548;2023-02-15T12:00:27;3.20;99.90
7572;DHT22;3827;49.928;8.548;2023-02-15T12:03:09;3.30;99.90
7572;DHT22;3827;49.928;8.548;2023-02-15T12:05:40;3.30;99.90
7572;DHT22;3827;49.928;8.548;2023-02-15T12:08:17;3.40;99.90
7572;DHT22;3827;49.928;8.548;2023-02-15T12:10:57;3.80;99.90
7572;DHT22;3827;49.928;8.548;2023-02-15T12:13:24;3.60;99.90
7572;DHT22;3827;49.928;8.548;2023-02-15T12:15:53;3.60;99.90
7572;DHT22;3827;49.928;8.548;2023-02-15T12:18:33;3.70;99.90
7572;DHT22;3827;49.928;8.548;2023-02-15T12:21:07;3.70;99.90
7572;DHT22;3827;49.928;8.548;2023-02-15T12:23:41;3.90;99.90
7572;DHT22;3827;49.928;8.548;2023-02-15T12:26:10;3.70;99.90
7572;DHT22;3827;49.928;8.548;2023-02-15T12:28:40;3.60;99.90
7572;DHT22;3827;49.928;8.548;2023-02-15T12:31:10;3.60;99.90
7572;DHT22;3827;49.928;8.548;2023-02-15T12:33:47;3.70;99.90
7572;DHT22;3827;49.928;8.548;2023-02-15T12:36:18;3.70;99.90
7572;DHT22;3827;49.928;8.548;2023-02-15T12:39:02;4.20;99.90
7572;DHT22;3827;49.928;8.548;2023-02-15T12:41:30;3.70;99.90
7572;DHT22;3827;49.928;8.548;2023-02-15T12:44:05;3.60;99.90
7572;DHT22;3827;49.928;8.548;2023-02-15T12:46:32;3.60;99.90
7572;DHT22;3827;49.928;8.548;2023-02-15T12:49:11;3.60;99.90
7572;DHT22;3827;49.928;8.548;2023-02-15T12:51:45;3.60;99.90
7572;DHT22;3827;49.928;8.548;2023-02-15T12:57:13;4.60;99.90
7572;DHT22;3827;49.928;8.548;2023-02-15T12:59:48;3.60;99.90
7572;DHT22;3827;49.928;8.548;2023-02-15T13:02:23;3.60;99.90
7572;DHT22;3827;49.928;8.548;2023-02-15T13:04:54;3.60;99.90
7572;DHT22;3827;49.928;8.548;2023-02-15T13:07:22;3.70;99.90
7572;DHT22;3827;49.928;8.548;2023-02-15T13:09:50;3.70;99.90
7572;DHT22;3827;49.928;8.548;2023-02-15T13:12:21;3.70;99.90
7572;DHT22;3827;49.928;8.548;2023-02-15T13:14:51;3.80;99.90
7572;DHT22;3827;49.928;8.548;2023-02-15T13:17:23;3.80;99.90
7572;DHT22;3827;49.928;8.548;2023-02-15T13:19:59;3.80;99.90
7572;DHT22;3827;49.928;8.548;2023-02-15T13:22:33;4.10;99.90
7572;DHT22;3827;49.928;8.548;2023-02-15T13:25:05;3.60;99.90
7572;DHT22;3827;49.928;8.548;2023-02-15T13:27:40;3.60;99.90
7572;DHT22;3827;49.928;8.548;2023-02-15T13:30:26;3.70;99.90
7572;DHT22;3827;49.928;8.548;2023-02-15T13:32:57;3.70;99.90
7572;DHT22;3827;49.928;8.548;2023-02-15T13:35:28;3.80;99.90
7572;DHT22;3827;49.928;8.548;2023-02-15T13:38:06;3.90;99.90
7572;DHT22;3827;49.928;8.548;2023-02-15T13:40:41;4.00;99.90
7572;DHT22;3827;49.928;8.548;2023-02-15T13:43:23;3.90;99.90
7572;DHT22;3827;49.928;8.548;2023-02-15T13:46:01;4.20;99.90
7572;DHT22;3827;49.928;8.548;2023-02-15T13:48:39;3.80;99.90
7572;DHT22;3827;49.928;8.548;2023-02-15T13:51:15;3.40;99.90
7572;DHT22;3827;49.928;8.548;2023-02-15T13:53:59;3.20;99.90
7572;DHT22;3827;49.928;8.548;2023-02-15T13:56:40;3.40;99.90
7572;DHT22;3827;49.928;8.548;2023-02-15T14:02:19;3.70;99.90
7572;DHT22;3827;49.928;8.548;2023-02-15T14:05:15;3.90;99.90
7572;DHT22;3827;49.928;8.548;2023-02-15T14:07:56;3.80;99.90
7572;DHT22;3827;49.928;8.548;2023-02-15T14:10:32;3.70;99.90
7572;DHT22;3827;49.928;8.548;2023-02-15T14:16:14;3.90;99.90
7572;DHT22;3827;49.928;8.548;2023-02-15T14:18:46;3.90;99.90
7572;DHT22;3827;49.928;8.548;2023-02-15T14:21:17;3.90;99.90
7572;DHT22;3827;49.928;8.548;2023-02-15T14:23:57;4.50;99.90
7572;DHT22;3827;49.928;8.548;2023-02-15T14:26:35;4.30;99.90
7572;DHT22;3827;49.928;8.548;2023-02-15T14:29:16;4.00;99.90
7572;DHT22;3827;49.928;8.548;2023-02-15T14:31:46;4.00;99.90
7572;DHT22;3827;49.928;8.548;2023-02-15T14:34:19;3.90;99.90
7572;DHT22;3827;49.928;8.548;2023-02-15T14:36:48;3.90;99.90
7572;DHT22;3827;49.928;8.548;2023-02-15T14:39:26;3.90;99.90
7572;DHT22;3827;49.928;8.548;2023-02-15T14:42:15;3.90;99.90
7572;DHT22;3827;49.928;8.548;2023-02-15T14:44:47;3.80;99.90
7572;DHT22;3827;49.928;8.548;2023-02-15T14:47:20;3.90;99.90
7572;DHT22;3827;49.928;8.548;2023-02-15T14:49:49;3.60;99.90
7572;DHT22;3827;49.928;8.548;2023-02-15T14:52:15;3.60;99.90
7572;DHT22;3827;49.928;8.548;2023-02-15T14:54:59;3.60;99.90
7572;DHT22;3827;49.928;8.548;2023-02-15T14:57:28;3.50;99.90
7572;DHT22;3827;49.928;8.548;2023-02-15T14:59:58;3.90;99.90
7572;DHT22;3827;49.928;8.548;2023-02-15T15:02:28;3.50;99.90
7572;DHT22;3827;49.928;8.548;2023-02-15T15:05:00;3.50;99.90
7572;DHT22;3827;49.928;8.548;2023-02-15T15:07:37;3.50;99.90
7572;DHT22;3827;49.928;8.548;2023-02-15T15:10:23;3.50;99.90
7572;DHT22;3827;49.928;8.548;2023-02-15T15:12:54;3.50;99.90
7572;DHT22;3827;49.928;8.548;2023-02-15T15:15:34;3.50;99.90
7572;DHT22;3827;49.928;8.548;2023-02-15T15:18:04;3.40;99.90
7572;DHT22;3827;49.928;8.548;2023-02-15T15:20:44;3.70;99.90
7572;DHT22;3827;49.928;8.548;2023-02-15T15:23:40;3.40;99.90
7572;DHT22;3827;49.928;8.548;2023-02-15T15:26:26;3.30;99.90
7572;DHT22;3827;49.928;8.548;2023-02-15T15:28:55;3.30;99.90
7572;DHT22;3827;49.928;8.548;2023-02-15T15:31:28;3.30;99.90
7572;DHT22;3827;49.928;8.548;2023-02-15T15:40:38;3.30;99.90
7572;DHT22;3827;49.928;8.548;2023-02-15T15:49:16;3.20;99.90
7572;DHT22;3827;49.928;8.548;2023-02-15T15:51:45;3.20;99.90
7572;DHT22;3827;49.928;8.548;2023-02-15T15:54:15;3.20;99.90
7572;DHT22;3827;49.928;8.548;2023-02-15T15:56:45;3.10;99.90
7572;DHT22;3827;49.928;8.548;2023-02-15T15:59:18;3.10;99.90
7572;DHT22;3827;49.928;8.548;2023-02-15T16:01:46;3.10;99.90
7572;DHT22;3827;49.928;8.548;2023-02-15T16:04:17;3.10;99.90
7572;DHT22;3827;49.928;8.548;2023-02-15T16:06:49;3.10;99.90
7572;DHT22;3827;49.928;8.548;2023-02-15T16:09:17;3.00;99.90
7572;DHT22;3827;49.928;8.548;2023-02-15T16:11:46;3.00;99.90
7572;DHT22;3827;49.928;8.548;2023-02-15T16:14:18;3.10;99.90
7572;DHT22;3827;49.928;8.548;2023-02-15T16:16:50;3.10;99.90
7572;DHT22;3827;49.928;8.548;2023-02-15T16:19:21;3.00;99.90
7572;DHT22;3827;49.928;8.548;2023-02-15T16:21:50;2.90;99.90
7572;DHT22;3827;49.928;8.548;2023-02-15T16:24:24;2.90;99.90
7572;DHT22;3827;49.928;8.548;2023-02-15T16:27:21;2.70;99.90
7572;DHT22;3827;49.928;8.548;2023-02-15T16:29:52;2.40;99.90
7572;DHT22;3827;49.928;8.548;2023-02-15T16:32:21;2.40;99.90
7572;DHT22;3827;49.928;8.548;2023-02-15T16:34:53;2.40;99.90
7572;DHT22;3827;49.928;8.548;2023-02-15T16:37:22;2.30;99.90
7572;DHT22;3827;49.928;8.548;2023-02-15T16:39:52;2.30;99.90
7572;DHT22;3827;49.928;8.548;2023-02-15T16:42:19;2.90;99.90
7572;DHT22;3827;49.928;8.548;2023-02-15T16:44:50;2.50;99.90
7572;DHT22;3827;49.928;8.548;2023-02-15T16:47:22;2.50;99.90
7572;DHT22;3827;49.928;8.548;2023-02-15T16:49:52;2.50;99.90
7572;DHT22;3827;49.928;8.548;2023-02-15T16:52:22;2.60;99.90
7572;DHT22;3827;49.928;8.548;2023-02-15T16:54:54;2.50;99.90
7572;DHT22;3827;49.928;8.548;2023-02-15T16:57:25;2.70;99.90
7572;DHT22;3827;49.928;8.548;2023-02-15T16:59:55;2.40;99.90
7572;DHT22;3827;49.928;8.548;2023-02-15T17:02:26;2.30;99.90
7572;DHT22;3827;49.928;8.548;2023-02-15T17:05:07;2.40;99.90
7572;DHT22;3827;49.928;8.548;2023-02-15T17:07:38;2.40;99.90
7572;DHT22;3827;49.928;8.548;2023-02-15T17:10:25;2.50;99.90
7572;DHT22;3827;49.928;8.548;2023-02-15T17:12:53;2.40;99.90
7572;DHT22;3827;49.928;8.548;2023-02-15T17:15:30;2.50;99.90
7572;DHT22;3827;49.928;8.548;2023-02-15T17:18:03;2.50;99.90
7572;DHT22;3827;49.928;8.548;2023-02-15T17:20:31;2.40;99.90
7572;DHT22;3827;49.928;8.548;2023-02-15T17:22:58;2.40;99.90